Time;durP1;ratioP1;P1;durP2;ratioP2;P2;SDS_P1;SDS_P2;PMS_P1;PMS_P2;Temp;Humidity;BMP_temperature;BMP_pressure;BME280_temperature;BME280_humidity;BME280_pressure;Samples;Min_cycle;Max_cycle;Signal;HPM_P1;HPM_P2
2022/10/04 00:02:15;;;;;;;;;;;25.40;99.90;;;;;;4198813;28;19933;-71
2022/10/04 00:04:26;;;;;;;;;;;25.40;99.90;;;;;;4197449;28;19971;-71
2022/10/04 00:06:36;;;;;;;;;;;25.20;99.90;;;;;;4189593;28;19928;-70
2022/10/04 00:08:42;;;;;;;;;;;25.20;99.90;;;;;;4190705;28;19928;-71
2022/10/04 00:10:46;;;;;;;;;;;25.00;99.90;;;;;;4199721;28;19932;-72
2022/10/04 00:12:51;;;;;;;;;;;25.10;99.90;;;;;;4195120;28;20052;-71
2022/10/04 00:14:59;;;;;;;;;;;25.10;99.90;;;;;;4175548;28;19931;-70
2022/10/04 00:17:13;;;;;;;;;;;25.00;99.90;;;;;;4199351;28;19955;-70
2022/10/04 00:19:19;;;;;;;;;;;25.10;99.90;;;;;;4196255;28;20050;-70
2022/10/04 00:21:25;;;;;;;;;;;25.10;99.90;;;;;;4176704;28;19929;-69
2022/10/04 00:23:35;;;;;;;;;;;25.10;99.90;;;;;;4174851;28;19928;-68
2022/10/04 00:25:41;;;;;;;;;;;25.20;99.90;;;;;;4175340;28;19929;-70
2022/10/04 00:27:58;;;;;;;;;;;25.30;99.90;;;;;;4142826;28;19926;-70
2022/10/04 00:30:06;;;;;;;;;;;25.30;99.90;;;;;;4142266;28;20048;-70
2022/10/04 00:32:11;;;;;;;;;;;25.40;99.90;;;;;;4147537;28;20438;-70
2022/10/04 00:34:28;;;;;;;;;;;25.30;99.90;;;;;;4161887;28;19929;-70
2022/10/04 00:36:46;;;;;;;;;;;25.40;99.90;;;;;;4145719;28;19929;-70
2022/10/04 00:39:03;;;;;;;;;;;25.20;99.90;;;;;;4145021;28;19952;-71
2022/10/04 00:41:07;;;;;;;;;;;24.90;99.90;;;;;;4144059;28;19929;-70
2022/10/04 00:43:16;;;;;;;;;;;25.10;99.90;;;;;;4156702;28;19932;-71
2022/10/04 00:45:27;;;;;;;;;;;25.20;99.90;;;;;;4161087;28;20570;-70
2022/10/04 00:47:45;;;;;;;;;;;25.20;99.90;;;;;;4160762;28;20304;-70
2022/10/04 00:49:54;;;;;;;;;;;25.20;99.90;;;;;;4161598;28;19929;-70
2022/10/04 00:52:00;;;;;;;;;;;25.30;99.90;;;;;;4145065;28;19971;-70
2022/10/04 00:54:19;;;;;;;;;;;25.40;99.90;;;;;;4148809;28;19994;-69
2022/10/04 00:56:24;;;;;;;;;;;25.20;99.90;;;;;;4177704;28;20332;-69
2022/10/04 00:58:30;;;;;;;;;;;25.30;99.90;;;;;;4186448;28;19928;-70
2022/10/04 01:00:35;;;;;;;;;;;25.40;99.90;;;;;;4212507;28;19927;-69
2022/10/04 01:02:43;;;;;;;;;;;25.40;99.90;;;;;;4195803;28;19978;-70
2022/10/04 01:04:55;;;;;;;;;;;25.40;99.90;;;;;;4213217;28;19925;-71
2022/10/04 01:07:01;;;;;;;;;;;25.40;99.90;;;;;;4212767;28;20310;-69
2022/10/04 01:09:09;;;;;;;;;;;25.20;99.90;;;;;;4178291;28;20019;-70
2022/10/04 01:11:20;;;;;;;;;;;25.30;99.90;;;;;;4193698;28;19928;-70
2022/10/04 01:13:27;;;;;;;;;;;25.40;99.90;;;;;;4194338;28;20011;-69
2022/10/04 01:15:35;;;;;;;;;;;25.30;99.90;;;;;;4161550;28;19929;-70
2022/10/04 01:17:58;;;;;;;;;;;25.40;99.90;;;;;;4194298;28;20449;-70
2022/10/04 01:20:12;;;;;;;;;;;25.60;99.90;;;;;;4193837;28;19931;-69
2022/10/04 01:22:41;;;;;;;;;;;25.70;99.90;;;;;;4193750;28;19928;-69
2022/10/04 01:24:56;;;;;;;;;;;25.80;99.90;;;;;;4194344;28;20420;-69
2022/10/04 01:27:22;;;;;;;;;;;25.50;99.90;;;;;;4160727;28;19925;-70
2022/10/04 01:29:46;;;;;;;;;;;25.50;99.90;;;;;;4147257;28;19925;-69
2022/10/04 01:32:09;;;;;;;;;;;25.60;99.90;;;;;;4147376;28;19948;-68
2022/10/04 01:34:33;;;;;;;;;;;25.70;99.90;;;;;;4134223;28;19957;-69
2022/10/04 01:36:47;;;;;;;;;;;25.80;99.90;;;;;;4145059;28;19925;-69
2022/10/04 01:39:05;;;;;;;;;;;25.80;99.90;;;;;;4130808;28;19925;-69
2022/10/04 01:41:14;;;;;;;;;;;25.60;99.90;;;;;;4128999;28;19972;-69
2022/10/04 01:43:26;;;;;;;;;;;25.60;99.90;;;;;;4158379;28;19929;-69
2022/10/04 01:45:51;;;;;;;;;;;25.60;99.90;;;;;;4147265;28;19937;-69
2022/10/04 01:48:12;;;;;;;;;;;25.40;99.90;;;;;;4146602;28;19956;-69
2022/10/04 01:50:39;;;;;;;;;;;25.50;99.90;;;;;;4147137;28;19932;-69
2022/10/04 01:53:08;;;;;;;;;;;25.70;99.90;;;;;;4160614;28;20309;-69
2022/10/04 01:55:18;;;;;;;;;;;25.80;99.90;;;;;;4160624;28;19931;-69
2022/10/04 01:57:33;;;;;;;;;;;25.90;99.90;;;;;;4152004;28;19991;-69
2022/10/04 02:00:00;;;;;;;;;;;25.90;99.90;;;;;;4179568;28;20018;-69
2022/10/04 02:02:34;;;;;;;;;;;26.00;99.90;;;;;;4185040;28;19929;-71
2022/10/04 02:04:40;;;;;;;;;;;25.70;99.90;;;;;;4212591;28;20544;-70
2022/10/04 02:06:53;;;;;;;;;;;25.80;99.90;;;;;;4212144;28;19924;-69
2022/10/04 02:09:02;;;;;;;;;;;26.00;99.90;;;;;;4195950;28;20008;-70
2022/10/04 02:11:09;;;;;;;;;;;26.10;99.90;;;;;;4190659;28;20480;-70
2022/10/04 02:13:34;;;;;;;;;;;26.20;99.90;;;;;;4156116;28;20292;-70
2022/10/04 02:15:57;;;;;;;;;;;26.10;99.90;;;;;;4162821;28;19925;-70
2022/10/04 02:18:21;;;;;;;;;;;26.00;99.90;;;;;;4149831;28;19925;-70
2022/10/04 02:20:35;;;;;;;;;;;26.00;99.90;;;;;;4177021;28;19964;-70
2022/10/04 02:22:52;;;;;;;;;;;26.00;99.90;;;;;;4145031;28;19936;-67
2022/10/04 02:25:13;;;;;;;;;;;26.00;99.90;;;;;;4155965;28;19929;-69
2022/10/04 02:27:32;;;;;;;;;;;26.20;99.90;;;;;;4146101;28;19929;-67
2022/10/04 02:29:43;;;;;;;;;;;26.20;99.90;;;;;;4160525;28;20333;-68
2022/10/04 02:34:35;;;;;;;;;;;26.20;99.90;;;;;;4133135;28;19996;-70
2022/10/04 02:36:41;;;;;;;;;;;26.40;99.90;;;;;;4147154;28;19929;-70
2022/10/04 02:39:02;;;;;;;;;;;26.30;99.90;;;;;;4148374;28;20327;-69
2022/10/04 02:41:18;;;;;;;;;;;26.20;99.90;;;;;;4163211;28;20366;-73
2022/10/04 02:43:37;;;;;;;;;;;26.20;99.90;;;;;;4120377;28;20270;-71
2022/10/04 02:45:46;;;;;;;;;;;26.20;99.90;;;;;;4180056;28;19963;-70
2022/10/04 02:48:12;;;;;;;;;;;26.20;99.90;;;;;;4180001;28;19963;-71
2022/10/04 02:50:18;;;;;;;;;;;26.40;99.90;;;;;;4179803;28;19928;-71
2022/10/04 02:52:52;;;;;;;;;;;26.30;99.90;;;;;;4179934;28;19951;-71
2022/10/04 02:55:01;;;;;;;;;;;26.40;99.90;;;;;;4197623;28;19928;-71
2022/10/04 02:57:19;;;;;;;;;;;26.50;99.90;;;;;;4198765;28;20513;-71
2022/10/04 02:59:26;;;;;;;;;;;26.60;99.90;;;;;;4198295;28;19932;-72
2022/10/04 03:01:42;;;;;;;;;;;26.60;99.90;;;;;;4198311;28;19931;-72
2022/10/04 03:03:56;;;;;;;;;;;26.60;99.90;;;;;;4198982;28;20418;-72
2022/10/04 03:06:20;;;;;;;;;;;26.50;99.90;;;;;;4200209;28;19991;-72
2022/10/04 03:08:28;;;;;;;;;;;26.50;99.90;;;;;;4196334;28;19928;-71
2022/10/04 03:10:42;;;;;;;;;;;26.70;99.90;;;;;;4196015;28;19928;-73
2022/10/04 03:13:09;;;;;;;;;;;26.70;99.90;;;;;;4169644;28;20291;-72
2022/10/04 03:15:25;;;;;;;;;;;26.60;99.90;;;;;;4166242;28;19929;-73
2022/10/04 03:17:35;;;;;;;;;;;26.60;99.90;;;;;;4180892;28;20318;-75
2022/10/04 03:19:46;;;;;;;;;;;26.60;99.90;;;;;;4180866;28;20058;-74
2022/10/04 03:21:54;;;;;;;;;;;26.60;99.90;;;;;;4147102;28;20351;-74
2022/10/04 03:23:59;;;;;;;;;;;26.60;99.90;;;;;;4179958;28;20032;-75
2022/10/04 03:26:18;;;;;;;;;;;26.60;99.90;;;;;;4195820;28;19929;-77
2022/10/04 03:28:27;;;;;;;;;;;26.60;99.90;;;;;;4196123;28;19928;-73
2022/10/04 03:30:33;;;;;;;;;;;26.60;99.90;;;;;;4179272;28;19932;-72
2022/10/04 03:32:38;;;;;;;;;;;26.70;99.90;;;;;;4179525;28;19925;-74
2022/10/04 03:34:48;;;;;;;;;;;26.90;99.90;;;;;;4162900;28;19929;-73
2022/10/04 03:36:58;;;;;;;;;;;27.00;99.90;;;;;;4178935;28;19925;-72
2022/10/04 03:39:02;;;;;;;;;;;27.00;99.90;;;;;;4196816;28;20379;-72
2022/10/04 03:41:10;;;;;;;;;;;27.00;99.90;;;;;;4195419;28;19967;-73
2022/10/04 03:43:15;;;;;;;;;;;27.00;99.90;;;;;;4167049;28;19979;-73
2022/10/04 03:45:21;;;;;;;;;;;27.00;99.90;;;;;;4179001;28;19928;-73
2022/10/04 03:47:35;;;;;;;;;;;27.10;99.90;;;;;;4162050;28;20358;-72
2022/10/04 03:49:43;;;;;;;;;;;27.00;99.90;;;;;;4163562;28;19929;-73
2022/10/04 03:51:58;;;;;;;;;;;26.90;99.90;;;;;;4178281;28;19936;-74
2022/10/04 03:54:15;;;;;;;;;;;27.10;99.90;;;;;;4179063;28;19940;-73
2022/10/04 03:56:28;;;;;;;;;;;27.20;99.90;;;;;;4161911;28;19933;-73
2022/10/04 03:58:51;;;;;;;;;;;27.30;99.90;;;;;;4165057;28;19999;-72
2022/10/04 04:00:56;;;;;;;;;;;27.50;99.90;;;;;;4175338;28;19975;-72
2022/10/04 04:03:02;;;;;;;;;;;27.70;99.90;;;;;;4178934;28;19949;-72
2022/10/04 04:05:14;;;;;;;;;;;27.70;99.90;;;;;;4162448;28;20677;-72
2022/10/04 04:07:25;;;;;;;;;;;27.90;99.90;;;;;;4148929;28;20028;-72
2022/10/04 04:09:32;;;;;;;;;;;28.10;99.90;;;;;;4195613;28;20311;-72
2022/10/04 04:11:41;;;;;;;;;;;28.30;99.90;;;;;;4195252;28;19929;-74
2022/10/04 04:13:52;;;;;;;;;;;28.30;99.90;;;;;;4180966;28;19951;-74
2022/10/04 04:16:04;;;;;;;;;;;28.30;99.90;;;;;;4196965;28;19959;-74
2022/10/04 04:18:21;;;;;;;;;;;28.40;99.90;;;;;;4190493;28;19971;-74
2022/10/04 04:20:36;;;;;;;;;;;28.50;99.90;;;;;;4197750;28;20035;-74
2022/10/04 04:23:11;;;;;;;;;;;28.60;99.90;;;;;;4181891;28;19925;-74
2022/10/04 04:25:24;;;;;;;;;;;28.70;99.90;;;;;;4197582;28;19936;-74
2022/10/04 04:27:35;;;;;;;;;;;28.80;99.90;;;;;;4214293;28;19938;-74
2022/10/04 04:29:49;;;;;;;;;;;28.90;99.90;;;;;;4197343;28;19932;-73
2022/10/04 04:32:16;;;;;;;;;;;28.90;99.90;;;;;;4197572;28;19924;-73
2022/10/04 04:34:34;;;;;;;;;;;29.00;99.90;;;;;;4192432;28;19935;-74
2022/10/04 04:36:57;;;;;;;;;;;29.20;99.90;;;;;;4186469;28;20021;-73
2022/10/04 04:41:44;;;;;;;;;;;29.10;99.90;;;;;;4176077;28;20022;-73
2022/10/04 04:44:10;;;;;;;;;;;29.00;99.90;;;;;;4194727;28;19928;-73
2022/10/04 04:46:16;;;;;;;;;;;29.10;99.90;;;;;;4190528;28;20450;-70
2022/10/04 04:48:33;;;;;;;;;;;29.00;99.90;;;;;;4192258;28;20002;-72
2022/10/04 04:50:48;;;;;;;;;;;29.10;99.90;;;;;;4205551;28;20029;-72
2022/10/04 04:52:59;;;;;;;;;;;29.00;99.90;;;;;;4149027;28;20024;-74
2022/10/04 04:55:13;;;;;;;;;;;29.00;99.90;;;;;;4204369;28;20001;-73
2022/10/04 04:57:20;;;;;;;;;;;29.00;99.90;;;;;;4178309;28;20050;-73
2022/10/04 04:59:25;;;;;;;;;;;28.90;99.90;;;;;;4201858;28;19967;-71
2022/10/04 05:01:34;;;;;;;;;;;28.90;99.90;;;;;;4182401;28;20027;-72
2022/10/04 05:03:42;;;;;;;;;;;28.90;99.90;;;;;;4189979;28;19971;-74
2022/10/04 05:05:50;;;;;;;;;;;28.90;99.90;;;;;;4210391;28;19928;-72
2022/10/04 05:08:07;;;;;;;;;;;28.90;99.90;;;;;;4209991;28;19935;-70
2022/10/04 05:10:32;;;;;;;;;;;28.90;99.90;;;;;;4195126;28;19935;-71
2022/10/04 05:12:45;;;;;;;;;;;28.90;99.90;;;;;;4193661;28;19929;-72
2022/10/04 05:14:53;;;;;;;;;;;28.90;99.90;;;;;;4210097;28;19928;-72
2022/10/04 05:16:57;;;;;;;;;;;28.90;99.90;;;;;;4209498;28;19982;-71
2022/10/04 05:19:03;;;;;;;;;;;28.90;99.90;;;;;;4192943;28;19929;-71
2022/10/04 05:21:11;;;;;;;;;;;29.00;99.90;;;;;;4192918;28;19928;-71
2022/10/04 05:23:35;;;;;;;;;;;29.00;99.90;;;;;;4167284;28;20017;-71
2022/10/04 05:25:59;;;;;;;;;;;28.90;99.90;;;;;;4194993;28;20775;-71
2022/10/04 05:28:04;;;;;;;;;;;28.90;99.90;;;;;;4192608;28;19928;-72
2022/10/04 05:30:19;;;;;;;;;;;29.00;99.90;;;;;;4208954;28;19928;-71
2022/10/04 05:32:37;;;;;;;;;;;29.00;99.90;;;;;;4210484;28;19928;-73
2022/10/04 05:34:48;;;;;;;;;;;29.00;99.90;;;;;;4210325;28;19967;-74
2022/10/04 05:37:11;;;;;;;;;;;29.00;99.90;;;;;;4209563;28;19962;-75
2022/10/04 05:39:26;;;;;;;;;;;29.10;99.90;;;;;;4210290;28;19932;-75
2022/10/04 05:41:40;;;;;;;;;;;29.10;99.90;;;;;;4210172;28;20769;-75
2022/10/04 05:43:48;;;;;;;;;;;29.10;99.90;;;;;;4221048;28;19967;-75
2022/10/04 05:46:10;;;;;;;;;;;29.10;99.90;;;;;;4212297;28;20014;-76
2022/10/04 05:48:21;;;;;;;;;;;29.10;99.90;;;;;;4209836;28;19928;-74
2022/10/04 05:50:33;;;;;;;;;;;29.10;99.90;;;;;;4183541;28;20023;-74
2022/10/04 05:52:40;;;;;;;;;;;29.10;99.90;;;;;;4194807;28;19924;-76
2022/10/04 05:55:18;;;;;;;;;;;29.10;99.90;;;;;;4180500;28;20403;-76
2022/10/04 05:57:45;;;;;;;;;;;29.20;99.90;;;;;;4209316;28;19970;-75
2022/10/04 05:59:56;;;;;;;;;;;29.10;99.90;;;;;;4174997;28;19928;-72
2022/10/04 06:02:37;;;;;;;;;;;29.20;99.90;;;;;;4192936;28;20290;-75
2022/10/04 06:04:58;;;;;;;;;;;29.20;99.90;;;;;;4209638;28;19928;-74
2022/10/04 06:07:31;;;;;;;;;;;29.30;99.90;;;;;;4209189;28;20423;-74
2022/10/04 06:09:45;;;;;;;;;;;29.30;99.90;;;;;;4193064;28;19932;-74
2022/10/04 06:12:09;;;;;;;;;;;29.30;99.90;;;;;;4167013;28;19951;-75
2022/10/04 06:14:20;;;;;;;;;;;29.40;99.90;;;;;;4175902;28;19929;-74
2022/10/04 06:16:41;;;;;;;;;;;29.50;99.90;;;;;;4192154;28;20516;-75
2022/10/04 06:18:57;;;;;;;;;;;29.50;99.90;;;;;;4210258;28;19935;-74
2022/10/04 06:21:24;;;;;;;;;;;29.50;99.90;;;;;;4194930;28;19933;-75
2022/10/04 06:23:29;;;;;;;;;;;29.60;99.90;;;;;;4215054;28;19930;-74
2022/10/04 06:25:47;;;;;;;;;;;29.60;99.90;;;;;;4209976;28;19953;-74
2022/10/04 06:27:56;;;;;;;;;;;29.60;99.90;;;;;;4215965;28;19935;-75
2022/10/04 06:30:05;;;;;;;;;;;29.70;99.90;;;;;;4174402;28;19929;-74
2022/10/04 06:32:19;;;;;;;;;;;29.70;99.90;;;;;;4193017;28;19954;-74
2022/10/04 06:34:39;;;;;;;;;;;29.70;99.90;;;;;;4199161;28;19940;-74
2022/10/04 06:36:58;;;;;;;;;;;29.80;99.90;;;;;;4187312;28;19936;-74
2022/10/04 06:39:34;;;;;;;;;;;29.80;99.90;;;;;;4180723;28;20761;-75
2022/10/04 06:41:58;;;;;;;;;;;29.90;99.90;;;;;;4204124;28;19935;-74
2022/10/04 06:44:22;;;;;;;;;;;29.90;99.90;;;;;;4192685;28;20367;-74
2022/10/04 06:46:42;;;;;;;;;;;29.80;99.90;;;;;;4201953;28;20408;-75
2022/10/04 06:48:46;;;;;;;;;;;29.90;99.90;;;;;;4208587;28;19958;-75
2022/10/04 06:51:15;;;;;;;;;;;30.00;99.90;;;;;;4191852;28;19929;-75
2022/10/04 06:53:34;;;;;;;;;;;30.00;99.90;;;;;;4191093;28;19928;-74
2022/10/04 06:55:45;;;;;;;;;;;30.10;99.90;;;;;;4208602;28;19927;-74
2022/10/04 06:57:50;;;;;;;;;;;30.20;99.90;;;;;;4190761;28;20469;-74
2022/10/04 07:00:08;;;;;;;;;;;30.20;99.90;;;;;;4190915;28;19954;-73
2022/10/04 07:02:25;;;;;;;;;;;30.20;99.90;;;;;;4192236;28;19929;-77
2022/10/04 07:04:49;;;;;;;;;;;30.30;99.90;;;;;;4192765;28;20357;-74
2022/10/04 07:07:36;;;;;;;;;;;30.30;99.90;;;;;;4220559;28;19935;-76
2022/10/04 07:09:40;;;;;;;;;;;30.50;99.90;;;;;;4209574;28;20005;-75
2022/10/04 07:11:57;;;;;;;;;;;30.60;99.90;;;;;;4184260;28;19935;-75
2022/10/04 07:14:02;;;;;;;;;;;30.60;99.90;;;;;;4192938;28;19943;-75
2022/10/04 07:16:27;;;;;;;;;;;30.70;99.90;;;;;;4183579;28;19982;-74
2022/10/04 07:18:47;;;;;;;;;;;30.70;99.90;;;;;;4209417;28;19931;-75
2022/10/04 07:20:58;;;;;;;;;;;30.80;99.90;;;;;;4210725;28;19960;-74
2022/10/04 07:23:06;;;;;;;;;;;30.80;99.90;;;;;;4196039;28;19928;-74
2022/10/04 07:25:20;;;;;;;;;;;30.70;99.90;;;;;;4195532;28;20295;-74
2022/10/04 07:27:25;;;;;;;;;;;30.70;99.90;;;;;;4212276;28;20027;-74
2022/10/04 07:29:33;;;;;;;;;;;30.70;99.90;;;;;;4212910;28;20022;-74
2022/10/04 07:31:45;;;;;;;;;;;30.60;99.90;;;;;;4195185;28;20362;-74
2022/10/04 07:33:51;;;;;;;;;;;30.60;99.90;;;;;;4193964;28;20330;-73
2022/10/04 07:36:08;;;;;;;;;;;30.70;99.90;;;;;;4210779;28;19928;-71
2022/10/04 07:38:12;;;;;;;;;;;30.80;99.90;;;;;;4216734;28;20820;-73
2022/10/04 07:40:36;;;;;;;;;;;30.90;99.90;;;;;;4210549;28;19954;-73
2022/10/04 07:42:58;;;;;;;;;;;30.90;99.90;;;;;;4217068;28;20018;-74
2022/10/04 07:45:23;;;;;;;;;;;30.90;99.90;;;;;;4193865;28;20386;-74
2022/10/04 07:47:41;;;;;;;;;;;30.90;99.90;;;;;;4210394;28;20045;-73
2022/10/04 07:49:53;;;;;;;;;;;30.90;99.90;;;;;;4209202;28;19935;-73
2022/10/04 07:52:09;;;;;;;;;;;30.80;99.90;;;;;;4212342;28;19928;-74
2022/10/04 07:54:37;;;;;;;;;;;30.80;99.90;;;;;;4211623;28;20352;-73
2022/10/04 07:56:53;;;;;;;;;;;30.70;99.90;;;;;;4212935;28;20345;-75
2022/10/04 07:59:11;;;;;;;;;;;30.60;99.90;;;;;;4193338;28;20635;-75
2022/10/04 08:01:17;;;;;;;;;;;30.60;99.90;;;;;;4190289;28;19927;-73
2022/10/04 08:03:31;;;;;;;;;;;30.50;99.90;;;;;;4208281;28;20326;-73
2022/10/04 08:05:37;;;;;;;;;;;30.50;99.90;;;;;;4172247;28;20039;-74
2022/10/04 08:07:54;;;;;;;;;;;30.50;99.90;;;;;;4191565;28;20383;-75
2022/10/04 08:10:02;;;;;;;;;;;30.50;99.90;;;;;;4208324;28;19935;-74
2022/10/04 08:12:17;;;;;;;;;;;30.60;99.90;;;;;;4207388;28;19928;-75
2022/10/04 08:14:31;;;;;;;;;;;30.60;99.90;;;;;;4156276;28;19925;-74
2022/10/04 08:16:48;;;;;;;;;;;30.60;99.90;;;;;;4208247;28;20245;-74
2022/10/04 08:19:05;;;;;;;;;;;30.60;99.90;;;;;;4183610;28;20440;-76
2022/10/04 08:21:15;;;;;;;;;;;30.60;99.90;;;;;;4193812;28;19928;-75
2022/10/04 08:23:26;;;;;;;;;;;30.70;99.90;;;;;;4190238;28;19933;-73
2022/10/04 08:25:33;;;;;;;;;;;30.70;99.90;;;;;;4188309;28;20799;-73
2022/10/04 08:30:12;;;;;;;;;;;30.70;99.90;;;;;;4204563;28;20033;-74
2022/10/04 08:32:22;;;;;;;;;;;30.70;99.90;;;;;;4190337;28;19929;-76
2022/10/04 08:34:50;;;;;;;;;;;30.70;99.90;;;;;;4195996;28;20480;-75
2022/10/04 08:37:06;;;;;;;;;;;30.80;99.90;;;;;;4210293;28;19975;-76
2022/10/04 08:39:20;;;;;;;;;;;30.80;99.90;;;;;;4195814;28;19928;-76
2022/10/04 08:41:26;;;;;;;;;;;30.80;99.90;;;;;;4212563;28;19939;-75
2022/10/04 08:43:43;;;;;;;;;;;30.70;99.90;;;;;;4196103;28;19974;-74
2022/10/04 08:45:57;;;;;;;;;;;30.70;99.90;;;;;;4212760;28;20019;-73
2022/10/04 08:48:07;;;;;;;;;;;30.60;99.90;;;;;;4213220;28;20019;-74
2022/10/04 08:50:23;;;;;;;;;;;30.60;99.90;;;;;;4194451;28;19935;-74
2022/10/04 08:52:36;;;;;;;;;;;30.70;99.90;;;;;;4212871;28;19983;-75
2022/10/04 08:55:06;;;;;;;;;;;30.60;99.90;;;;;;4217471;28;19978;-74
2022/10/04 08:57:14;;;;;;;;;;;30.60;99.90;;;;;;4212710;28;19928;-74
2022/10/04 08:59:18;;;;;;;;;;;30.60;99.90;;;;;;4192953;28;20307;-77
2022/10/04 09:01:36;;;;;;;;;;;30.60;99.90;;;;;;4211376;28;20023;-74
2022/10/04 09:04:01;;;;;;;;;;;30.60;99.90;;;;;;4211650;28;19936;-74
2022/10/04 09:06:17;;;;;;;;;;;30.60;99.90;;;;;;4193945;28;19932;-73
2022/10/04 09:08:34;;;;;;;;;;;30.50;99.90;;;;;;4222246;27;19928;-75
2022/10/04 09:10:49;;;;;;;;;;;30.60;99.90;;;;;;4212396;28;19977;-75
2022/10/04 09:13:12;;;;;;;;;;;30.60;99.90;;;;;;4212259;28;20027;-74
2022/10/04 09:15:19;;;;;;;;;;;30.60;99.90;;;;;;4192700;28;20027;-73
2022/10/04 09:17:43;;;;;;;;;;;30.60;99.90;;;;;;4212764;28;19924;-75
2022/10/04 09:19:53;;;;;;;;;;;30.60;99.90;;;;;;4212836;28;19928;-75
2022/10/04 09:22:37;;;;;;;;;;;30.70;99.90;;;;;;4210667;28;19978;-75
2022/10/04 09:24:44;;;;;;;;;;;30.60;99.90;;;;;;4211320;28;20007;-76
2022/10/04 09:27:06;;;;;;;;;;;30.60;99.90;;;;;;4209918;28;19977;-77
2022/10/04 09:29:26;;;;;;;;;;;30.60;99.90;;;;;;4212468;28;19963;-77
2022/10/04 09:31:46;;;;;;;;;;;30.60;99.90;;;;;;4212361;28;20014;-76
2022/10/04 09:34:05;;;;;;;;;;;30.60;99.90;;;;;;4205277;28;19925;-76
2022/10/04 09:36:18;;;;;;;;;;;30.60;99.90;;;;;;4190086;28;20412;-74
2022/10/04 09:38:34;;;;;;;;;;;30.60;99.90;;;;;;4176349;28;19929;-74
2022/10/04 09:41:10;;;;;;;;;;;30.60;99.90;;;;;;4205217;28;19928;-73
2022/10/04 09:43:29;;;;;;;;;;;30.60;99.90;;;;;;4210059;28;20329;-75
2022/10/04 09:45:56;;;;;;;;;;;30.60;99.90;;;;;;4212679;28;19928;-76
2022/10/04 09:48:00;;;;;;;;;;;30.60;99.90;;;;;;4211017;28;20060;-76
2022/10/04 09:50:13;;;;;;;;;;;30.60;99.90;;;;;;4193773;28;19936;-73
2022/10/04 09:52:35;;;;;;;;;;;30.50;99.90;;;;;;4193315;28;19924;-77
2022/10/04 09:54:50;;;;;;;;;;;30.50;99.90;;;;;;4191641;28;20161;-75
2022/10/04 09:57:18;;;;;;;;;;;30.40;99.90;;;;;;4205253;28;19966;-74
2022/10/04 09:59:36;;;;;;;;;;;30.40;99.90;;;;;;4188120;28;20410;-74
2022/10/04 10:02:03;;;;;;;;;;;30.40;99.90;;;;;;4209798;28;19963;-75
2022/10/04 10:04:09;;;;;;;;;;;30.30;99.90;;;;;;4211025;28;19924;-75
2022/10/04 10:06:23;;;;;;;;;;;30.30;99.90;;;;;;4208814;28;19928;-74
2022/10/04 10:08:28;;;;;;;;;;;30.20;99.90;;;;;;4194019;28;19929;-75
2022/10/04 10:15:43;;;;;;;;;;;30.10;99.90;;;;;;4211826;28;19928;-74
2022/10/04 10:17:55;;;;;;;;;;;30.00;99.90;;;;;;4178149;28;20257;-72
2022/10/04 10:20:13;;;;;;;;;;;30.10;99.90;;;;;;4178153;28;19924;-73
2022/10/04 10:22:27;;;;;;;;;;;30.00;99.90;;;;;;4212119;28;19923;-73
2022/10/04 10:24:46;;;;;;;;;;;30.00;99.90;;;;;;4211309;28;20720;-72
2022/10/04 10:27:02;;;;;;;;;;;29.90;99.90;;;;;;4229203;28;19927;-74
2022/10/04 10:29:28;;;;;;;;;;;29.90;99.90;;;;;;4195889;28;19947;-74
2022/10/04 10:31:45;;;;;;;;;;;29.80;99.90;;;;;;4194086;28;20382;-73
2022/10/04 10:34:04;;;;;;;;;;;29.70;99.90;;;;;;4211261;28;19928;-74
2022/10/04 10:36:18;;;;;;;;;;;29.60;99.90;;;;;;4210521;28;20423;-73
2022/10/04 10:38:39;;;;;;;;;;;29.50;99.90;;;;;;4208228;28;19924;-73
2022/10/04 10:40:44;;;;;;;;;;;29.40;99.90;;;;;;4194566;28;19970;-71
2022/10/04 10:43:02;;;;;;;;;;;29.40;99.90;;;;;;4211845;28;19924;-75
2022/10/04 10:45:20;;;;;;;;;;;29.50;99.90;;;;;;4219960;28;19935;-75
2022/10/04 10:47:30;;;;;;;;;;;29.40;99.90;;;;;;4229251;28;20078;-76
2022/10/04 10:49:48;;;;;;;;;;;29.40;99.90;;;;;;4229095;28;20271;-74
2022/10/04 10:51:54;;;;;;;;;;;29.50;99.90;;;;;;4228763;28;19928;-75
2022/10/04 10:54:06;;;;;;;;;;;29.50;99.90;;;;;;4228682;28;19935;-74
2022/10/04 10:56:27;;;;;;;;;;;29.50;99.90;;;;;;4195933;28;19960;-73
2022/10/04 10:58:44;;;;;;;;;;;29.40;99.90;;;;;;4214643;28;19932;-74
2022/10/04 11:00:56;;;;;;;;;;;29.40;99.90;;;;;;4197550;28;19931;-74
2022/10/04 11:03:28;;;;;;;;;;;29.40;99.90;;;;;;4182630;28;20511;-75
2022/10/04 11:05:39;;;;;;;;;;;29.40;99.90;;;;;;4180435;28;19951;-73
2022/10/04 11:07:52;;;;;;;;;;;29.40;99.90;;;;;;4191471;28;19932;-73
2022/10/04 11:10:02;;;;;;;;;;;29.40;99.90;;;;;;4181620;28;19928;-74
2022/10/04 11:12:23;;;;;;;;;;;29.30;99.90;;;;;;4214692;28;19924;-75
2022/10/04 11:14:36;;;;;;;;;;;29.30;99.90;;;;;;4214862;28;19978;-74
2022/10/04 11:16:46;;;;;;;;;;;29.30;99.90;;;;;;4196039;28;20339;-74
2022/10/04 11:19:03;;;;;;;;;;;29.30;99.90;;;;;;4195563;28;19997;-72
2022/10/04 11:21:37;;;;;;;;;;;29.20;99.90;;;;;;4207700;28;19938;-74
2022/10/04 11:23:55;;;;;;;;;;;29.20;99.90;;;;;;4211383;28;19934;-74
2022/10/04 11:26:13;;;;;;;;;;;29.10;99.90;;;;;;4195870;28;19973;-73
2022/10/04 11:28:31;;;;;;;;;;;29.00;99.90;;;;;;4213981;28;19924;-72
2022/10/04 11:30:51;;;;;;;;;;;28.90;99.90;;;;;;4213799;28;19924;-73
2022/10/04 11:33:07;;;;;;;;;;;28.90;99.90;;;;;;4187863;28;19928;-73
2022/10/04 11:35:25;;;;;;;;;;;28.90;99.90;;;;;;4194508;28;19932;-73
2022/10/04 11:37:40;;;;;;;;;;;29.00;99.90;;;;;;4213139;28;20363;-74
2022/10/04 11:39:45;;;;;;;;;;;28.90;99.90;;;;;;4213407;28;19950;-75
2022/10/04 11:42:16;;;;;;;;;;;28.90;99.90;;;;;;4213250;28;20019;-76
2022/10/04 11:44:34;;;;;;;;;;;28.90;99.90;;;;;;4196657;28;19928;-75
2022/10/04 11:46:53;;;;;;;;;;;28.90;99.90;;;;;;4179531;28;20408;-74
2022/10/04 11:49:15;;;;;;;;;;;28.90;99.90;;;;;;4209063;28;19935;-75
2022/10/04 11:51:22;;;;;;;;;;;28.80;99.90;;;;;;4203040;28;20007;-75
2022/10/04 11:53:51;;;;;;;;;;;28.70;99.90;;;;;;4210958;28;20020;-73
2022/10/04 11:56:07;;;;;;;;;;;28.70;99.90;;;;;;4211259;28;20007;-75
2022/10/04 11:58:24;;;;;;;;;;;28.70;99.90;;;;;;4198333;28;20296;-74
2022/10/04 12:00:46;;;;;;;;;;;28.50;99.90;;;;;;4205955;28;19935;-74
2022/10/04 12:03:09;;;;;;;;;;;28.40;99.90;;;;;;4193541;28;20426;-73
2022/10/04 12:05:17;;;;;;;;;;;28.50;99.90;;;;;;4210275;28;19928;-73
2022/10/04 12:07:39;;;;;;;;;;;28.50;99.90;;;;;;4208806;28;19966;-73
2022/10/04 12:09:55;;;;;;;;;;;28.40;99.90;;;;;;4211162;28;20015;-74
2022/10/04 12:14:49;;;;;;;;;;;28.40;99.90;;;;;;4192893;28;19928;-75
2022/10/04 12:17:07;;;;;;;;;;;28.20;99.90;;;;;;4209636;28;20022;-74
2022/10/04 12:19:27;;;;;;;;;;;28.10;99.90;;;;;;4194780;28;19928;-74
2022/10/04 12:21:37;;;;;;;;;;;28.10;99.90;;;;;;4210095;28;20711;-74
2022/10/04 12:23:52;;;;;;;;;;;28.00;99.90;;;;;;4211064;28;19978;-74
2022/10/04 12:25:57;;;;;;;;;;;27.90;99.90;;;;;;4210672;28;19928;-74
2022/10/04 12:28:10;;;;;;;;;;;27.90;99.90;;;;;;4211057;28;20389;-75
2022/10/04 12:30:29;;;;;;;;;;;27.90;99.90;;;;;;4209549;28;20393;-74
2022/10/04 12:32:41;;;;;;;;;;;27.90;99.90;;;;;;4193208;28;19928;-73
2022/10/04 12:34:51;;;;;;;;;;;28.10;99.90;;;;;;4202969;28;20414;-74
2022/10/04 12:37:12;;;;;;;;;;;28.00;99.90;;;;;;4211929;28;19940;-74
2022/10/04 12:39:27;;;;;;;;;;;28.00;99.90;;;;;;4191779;28;19935;-74
2022/10/04 12:41:38;;;;;;;;;;;28.10;99.90;;;;;;4207873;28;19927;-74
2022/10/04 12:43:48;;;;;;;;;;;28.30;99.90;;;;;;4207770;28;19932;-74
2022/10/04 12:45:55;;;;;;;;;;;28.40;99.90;;;;;;4192019;28;19928;-74
2022/10/04 12:48:04;;;;;;;;;;;28.40;99.90;;;;;;4193570;28;19932;-74
2022/10/04 12:50:23;;;;;;;;;;;28.40;99.90;;;;;;4219942;28;19924;-74
2022/10/04 12:52:54;;;;;;;;;;;28.30;99.90;;;;;;4216331;28;20018;-74
2022/10/04 12:54:59;;;;;;;;;;;28.20;99.90;;;;;;4193542;28;20412;-74
2022/10/04 12:57:20;;;;;;;;;;;28.10;99.90;;;;;;4210990;28;19928;-74
2022/10/04 12:59:39;;;;;;;;;;;28.10;99.90;;;;;;4210342;28;20059;-74
2022/10/04 13:01:47;;;;;;;;;;;28.00;99.90;;;;;;4193826;28;20680;-74
2022/10/04 13:03:58;;;;;;;;;;;28.10;99.90;;;;;;4176996;28;19928;-74
2022/10/04 13:06:15;;;;;;;;;;;28.00;99.90;;;;;;4191644;28;20680;-73
2022/10/04 13:08:30;;;;;;;;;;;27.90;99.90;;;;;;4226187;28;20027;-73
2022/10/04 13:10:47;;;;;;;;;;;27.70;99.90;;;;;;4193046;28;19936;-72
2022/10/04 13:13:24;;;;;;;;;;;27.70;99.90;;;;;;4179322;28;19948;-73
2022/10/04 13:15:58;;;;;;;;;;;27.60;99.90;;;;;;4210196;28;19928;-72
2022/10/04 13:18:37;;;;;;;;;;;27.50;99.90;;;;;;4192210;28;20379;-73
2022/10/04 13:21:01;;;;;;;;;;;27.50;99.90;;;;;;4210819;28;19935;-72
2022/10/04 13:23:21;;;;;;;;;;;27.40;99.90;;;;;;4165092;28;19929;-72